Terminal Aerodrome Forecast
Issued by NWS

Home | Current Version | Previous Version | Text Only | Print | Product List | Glossary On
Versions: 1 2 3 4 5 6 7 8 9 10 11 12 13 14 15 16 17 18 19 20 21
000
FTUS41 KGYX 180311 AAB
TAFPSM
TAF AMD
KPSM 180311Z 1803/1824 28006KT P6SM OVC040
     FM180800 30008KT 5SM -SHRASN BR OVC030
     FM181400 30010G23KT P6SM BKN040=

USA.gov is the U.S. government's official web portal to all federal, state and local government web resources and services.